createdAt,value
2018-11-26T00:00:34.767Z,33.65
2018-11-26T00:03:09.312Z,31.12
2018-11-26T00:05:41.253Z,32.60
2018-11-26T00:08:17.290Z,33.05
2018-11-26T00:12:00.297Z,34.03
2018-11-26T00:14:45.506Z,36.48
2018-11-26T00:17:21.976Z,37.78
2018-11-26T00:19:52.630Z,36.65
2018-11-26T00:22:23.020Z,37.45
2018-11-26T00:24:53.793Z,38.33
2018-11-26T00:27:24.613Z,37.05
2018-11-26T00:29:55.223Z,37.60
2018-11-26T00:32:25.659Z,36.90
2018-11-26T00:34:56.522Z,38.40
2018-11-26T00:37:26.925Z,37.55
2018-11-26T00:39:57.511Z,37.67
2018-11-26T00:42:28.028Z,39.13
2018-11-26T00:44:58.860Z,39.70
2018-11-26T00:47:29.627Z,39.90
2018-11-26T00:50:00.377Z,40.35
2018-11-26T00:52:37.561Z,41.88
2018-11-26T00:55:10.508Z,43.40
2018-11-26T00:57:41.024Z,43.25
2018-11-26T01:00:13.349Z,42.85
2018-11-26T01:02:44.103Z,43.28
2018-11-26T01:05:28.970Z,42.73
2018-11-26T01:07:59.890Z,42.27
2018-11-26T01:10:30.450Z,41.98
2018-11-26T01:13:00.871Z,40.73
2018-11-26T01:15:31.609Z,41.73
2018-11-26T01:18:02.065Z,42.55
2018-11-26T01:20:32.745Z,42.38
2018-11-26T01:23:03.437Z,45.45
2018-11-26T01:25:34.393Z,44.85
2018-11-26T01:28:05.112Z,45.63
2018-11-26T01:30:35.736Z,70.55
2018-11-26T01:33:06.388Z,57.40
2018-11-26T01:35:37.033Z,49.03
2018-11-26T01:38:07.679Z,47.75
2018-11-26T01:40:43.339Z,43.87
2018-11-26T01:43:14.016Z,45.70
2018-11-26T01:45:44.686Z,47.90
2018-11-26T01:48:15.181Z,50.63
2018-11-26T01:50:45.922Z,48.25
2018-11-26T01:53:16.454Z,48.35
2018-11-26T01:55:47.335Z,45.40
2018-11-26T01:58:17.926Z,45.55
2018-11-26T02:00:48.611Z,44.45
2018-11-26T02:03:19.206Z,46.13
2018-11-26T02:05:49.866Z,46.60
2018-11-26T02:08:20.462Z,44.90
2018-11-26T02:10:51.207Z,43.50
2018-11-26T02:13:22.047Z,43.83
2018-11-26T02:15:53.114Z,47.93
2018-11-26T02:18:23.817Z,41.20
2018-11-26T02:20:54.860Z,41.83
2018-11-26T02:23:25.348Z,39.75
2018-11-26T02:25:56.349Z,42.17
2018-11-26T02:28:27.490Z,41.83
2018-11-26T02:30:58.271Z,40.03
2018-11-26T02:33:28.794Z,41.63
2018-11-26T02:35:59.437Z,37.08
2018-11-26T02:38:30.080Z,39.15
2018-11-26T02:41:00.984Z,38.85
2018-11-26T02:43:31.544Z,38.45
2018-11-26T02:46:02.153Z,38.38
2018-11-26T02:48:32.857Z,36.45
2018-11-26T02:51:03.620Z,37.63
2018-11-26T02:53:34.008Z,39.27
2018-11-26T02:56:04.506Z,39.42
2018-11-26T02:58:35.271Z,46.65
2018-11-26T03:01:06.453Z,46.02
2018-11-26T03:03:37.181Z,44.95
2018-11-26T03:06:07.867Z,44.15
2018-11-26T03:08:38.398Z,46.05
2018-11-26T03:11:09.136Z,40.50
2018-11-26T03:13:39.982Z,36.95
2018-11-26T03:16:11.182Z,38.63
2018-11-26T03:18:41.909Z,36.28
2018-11-26T03:21:12.695Z,36.55
2018-11-26T03:23:43.506Z,35.95
2018-11-26T03:26:14.303Z,35.17
2018-11-26T03:28:45.053Z,32.60
2018-11-26T03:31:16.048Z,31.07
2018-11-26T03:33:46.761Z,31.05
2018-11-26T03:36:17.299Z,30.40
2018-11-26T03:38:53.414Z,29.48
2018-11-26T03:41:24.722Z,28.95
2018-11-26T03:43:55.489Z,29.48
2018-11-26T03:46:26.131Z,28.65
2018-11-26T03:48:56.802Z,28.27
2018-11-26T03:51:27.570Z,28.67
2018-11-26T03:53:58.264Z,29.45
2018-11-26T03:56:28.795Z,28.80
2018-11-26T03:58:59.285Z,28.20
2018-11-26T04:01:30.168Z,27.17
2018-11-26T04:04:00.676Z,27.70
2018-11-26T04:06:31.356Z,27.15
2018-11-26T04:09:02.063Z,27.77
2018-11-26T04:11:32.568Z,28.98
2018-11-26T04:14:03.162Z,28.17
2018-11-26T04:16:33.813Z,28.67
2018-11-26T04:19:04.425Z,28.05
2018-11-26T04:21:35.109Z,28.47
2018-11-26T04:24:06.666Z,28.85
2018-11-26T04:26:37.248Z,28.77
2018-11-26T04:29:08.031Z,29.25
2018-11-26T04:31:38.759Z,28.73
2018-11-26T04:34:09.464Z,28.90
2018-11-26T04:36:40.215Z,28.62
2018-11-26T04:39:10.899Z,28.17
2018-11-26T04:41:41.332Z,29.37
2018-11-26T04:44:12.033Z,30.32
2018-11-26T04:46:42.640Z,28.73
2018-11-26T04:49:13.270Z,27.10
2018-11-26T04:51:43.902Z,26.52
2018-11-26T04:54:14.868Z,26.30
2018-11-26T04:56:45.527Z,26.70
2018-11-26T04:59:16.168Z,26.23
2018-11-26T05:01:46.718Z,27.07
2018-11-26T05:04:17.486Z,25.30
2018-11-26T05:06:48.207Z,26.73
2018-11-26T05:09:18.757Z,25.92
2018-11-26T05:11:49.396Z,28.57
2018-11-26T05:14:20.320Z,27.17
2018-11-26T05:16:51.396Z,26.83
2018-11-26T05:19:22.147Z,31.60
2018-11-26T05:21:53.057Z,24.90
2018-11-26T05:24:23.974Z,24.60
2018-11-26T05:26:54.618Z,26.87
2018-11-26T05:29:25.567Z,27.13
2018-11-26T05:31:56.196Z,28.43
2018-11-26T05:34:26.585Z,29.27
2018-11-26T05:36:57.916Z,29.10
2018-11-26T05:39:28.877Z,29.17
2018-11-26T05:41:59.729Z,27.90
2018-11-26T05:44:30.474Z,27.00
2018-11-26T05:47:01.051Z,25.83
2018-11-26T05:49:31.829Z,28.23
2018-11-26T05:52:02.663Z,29.33
2018-11-26T05:54:33.315Z,29.73
2018-11-26T05:57:04.156Z,32.00
2018-11-26T05:59:34.743Z,29.67
2018-11-26T06:02:05.436Z,29.10
2018-11-26T06:04:36.446Z,27.37
2018-11-26T06:07:07.362Z,28.60
2018-11-26T06:09:38.154Z,29.30
2018-11-26T06:12:08.789Z,29.87
2018-11-26T06:14:39.314Z,29.33
2018-11-26T06:17:10.047Z,30.73
2018-11-26T06:19:40.736Z,29.47
2018-11-26T06:22:11.522Z,28.37
2018-11-26T06:24:42.456Z,27.43
2018-11-26T06:27:12.913Z,24.63
2018-11-26T06:29:43.550Z,25.67
2018-11-26T06:32:14.136Z,26.47
2018-11-26T06:34:45.576Z,25.67
2018-11-26T06:37:15.924Z,28.80
2018-11-26T06:39:46.454Z,25.93
2018-11-26T06:42:17.574Z,25.70
2018-11-26T06:44:48.483Z,23.27
2018-11-26T06:47:19.598Z,26.57
2018-11-26T06:49:50.404Z,28.63
2018-11-26T06:52:21.096Z,25.57
2018-11-26T06:54:51.774Z,23.17
2018-11-26T06:57:22.486Z,26.50
2018-11-26T06:59:53.153Z,24.47
2018-11-26T07:02:23.807Z,30.83
2018-11-26T07:04:54.609Z,25.90
2018-11-26T07:07:25.250Z,24.80
2018-11-26T07:09:55.783Z,23.23
2018-11-26T07:12:26.342Z,24.10
2018-11-26T07:14:57.082Z,23.93
2018-11-26T07:17:27.861Z,23.53
2018-11-26T07:19:58.232Z,23.50
2018-11-26T07:22:28.821Z,22.87
2018-11-26T07:24:59.510Z,20.20
2018-11-26T07:27:30.558Z,21.93
2018-11-26T07:32:31.369Z,23.50
2018-11-26T07:35:02.678Z,22.23
2018-11-26T07:37:34.228Z,22.47
2018-11-26T07:40:07.308Z,35.53
2018-11-26T07:42:38.711Z,21.50
2018-11-26T07:45:13.699Z,20.43
2018-11-26T07:47:45.612Z,21.40
2018-11-26T07:50:17.686Z,24.23
2018-11-26T07:52:50.032Z,21.60
2018-11-26T07:55:22.359Z,22.50
2018-11-26T07:57:53.467Z,21.13
2018-11-26T08:00:25.651Z,22.00
2018-11-26T08:02:57.266Z,21.67
2018-11-26T08:05:28.858Z,21.67
2018-11-26T08:08:01.332Z,22.97
2018-11-26T08:10:32.289Z,21.43
2018-11-26T08:13:03.104Z,21.27
2018-11-26T08:15:34.722Z,20.80
2018-11-26T08:18:06.581Z,21.93
2018-11-26T08:20:38.076Z,21.73
2018-11-26T08:23:09.527Z,20.07
2018-11-26T08:25:40.905Z,22.10
2018-11-26T08:28:12.992Z,23.97
2018-11-26T08:30:44.004Z,23.47
2018-11-26T08:33:14.927Z,23.67
2018-11-26T08:35:45.477Z,20.70
2018-11-26T08:38:20.936Z,22.57
2018-11-26T08:40:56.402Z,20.17
2018-11-26T08:43:39.961Z,19.80
2018-11-26T08:46:10.494Z,24.97
2018-11-26T08:48:45.978Z,25.77
2018-11-26T08:51:16.488Z,22.60
2018-11-26T08:53:47.182Z,21.80
2018-11-26T08:56:17.598Z,24.73
2018-11-26T08:58:48.000Z,23.23
2018-11-26T09:01:24.345Z,21.30
2018-11-26T09:04:00.272Z,21.20
2018-11-26T09:06:30.733Z,23.50
2018-11-26T09:09:01.193Z,25.07
2018-11-26T09:11:32.003Z,33.80
2018-11-26T09:14:02.524Z,23.53
2018-11-26T09:16:33.403Z,24.13
2018-11-26T09:19:04.016Z,34.13
2018-11-26T09:21:34.628Z,26.13
2018-11-26T09:24:05.229Z,32.93
2018-11-26T09:26:41.891Z,34.07
2018-11-26T09:29:13.231Z,39.57
2018-11-26T09:31:42.975Z,58.40
2018-11-26T09:34:13.818Z,35.07
2018-11-26T09:36:44.318Z,29.53
2018-11-26T09:39:14.743Z,38.77
2018-11-26T09:41:45.194Z,29.13
2018-11-26T09:44:15.751Z,28.00
2018-11-26T09:46:46.416Z,33.40
2018-11-26T09:49:16.910Z,39.83
2018-11-26T09:51:47.470Z,36.03
2018-11-26T09:54:18.293Z,29.37
2018-11-26T09:56:49.053Z,23.17
2018-11-26T09:59:19.507Z,29.37
2018-11-26T10:01:49.861Z,26.40
2018-11-26T10:04:20.558Z,103.87
2018-11-26T10:06:51.516Z,24.10
2018-11-26T10:09:21.876Z,20.77
2018-11-26T10:11:52.867Z,20.97
2018-11-26T10:14:23.327Z,30.43
2018-11-26T10:16:53.859Z,31.57
2018-11-26T10:19:24.300Z,26.57
2018-11-26T10:21:55.223Z,23.90
2018-11-26T10:24:26.248Z,27.27
2018-11-26T10:26:56.741Z,24.20
2018-11-26T10:29:27.520Z,22.17
2018-11-26T10:31:57.924Z,23.80
2018-11-26T10:34:28.388Z,28.27
2018-11-26T10:36:58.852Z,19.57
2018-11-26T10:39:29.365Z,18.40
2018-11-26T10:42:01.072Z,19.40
2018-11-26T10:44:30.868Z,20.70
2018-11-26T10:47:01.548Z,18.87
2018-11-26T10:49:32.289Z,19.13
2018-11-26T10:52:02.689Z,19.83
2018-11-26T10:54:33.120Z,37.13
2018-11-26T10:57:03.761Z,30.53
2018-11-26T10:59:34.391Z,26.40
2018-11-26T11:02:09.883Z,35.97
2018-11-26T11:04:47.343Z,26.00
2018-11-26T11:07:11.091Z,49.67
2018-11-26T11:09:41.479Z,33.37
2018-11-26T11:12:12.242Z,34.37
2018-11-26T11:14:42.951Z,32.07
2018-11-26T11:17:13.710Z,26.43
2018-11-26T11:19:44.225Z,24.23
2018-11-26T11:22:14.621Z,24.10
2018-11-26T11:24:45.093Z,33.37
2018-11-26T11:27:15.672Z,22.60
2018-11-26T11:29:46.243Z,23.17
2018-11-26T11:32:16.895Z,27.67
2018-11-26T11:34:47.544Z,28.10
2018-11-26T11:37:18.261Z,31.00
2018-11-26T11:39:49.403Z,26.83
2018-11-26T11:42:21.370Z,31.00
2018-11-26T11:44:52.561Z,25.17
2018-11-26T11:47:23.098Z,23.13
2018-11-26T11:49:55.166Z,27.23
2018-11-26T11:52:25.563Z,23.20
2018-11-26T11:54:56.197Z,25.47
2018-11-26T11:57:26.682Z,26.90
2018-11-26T11:59:57.442Z,24.77
2018-11-26T12:02:28.425Z,23.00
2018-11-26T12:04:59.626Z,22.30
2018-11-26T12:07:30.372Z,29.23
2018-11-26T12:10:09.380Z,22.83
2018-11-26T12:12:40.167Z,28.47
2018-11-26T12:15:13.236Z,43.30
2018-11-26T12:17:44.968Z,22.70
2018-11-26T12:20:23.007Z,25.80
2018-11-26T12:22:55.435Z,21.30
2018-11-26T12:25:27.874Z,21.10
2018-11-26T12:28:01.146Z,20.17
2018-11-26T12:30:37.255Z,20.83
2018-11-26T12:33:09.321Z,20.27
2018-11-26T12:35:40.334Z,19.40
2018-11-26T12:38:10.615Z,19.90
2018-11-26T12:40:41.230Z,19.67
2018-11-26T12:43:12.071Z,23.47
2018-11-26T12:45:42.877Z,25.87
2018-11-26T12:48:13.568Z,23.43
2018-11-26T12:50:44.118Z,21.90
2018-11-26T12:53:14.721Z,20.83
2018-11-26T12:55:45.351Z,18.37
2018-11-26T12:58:15.861Z,19.43
2018-11-26T13:00:46.377Z,24.00
2018-11-26T13:03:17.654Z,24.40
2018-11-26T13:05:48.256Z,18.97
2018-11-26T13:08:18.954Z,19.83
2018-11-26T13:10:49.655Z,21.13
2018-11-26T13:13:20.346Z,18.27
2018-11-26T13:15:51.003Z,25.83
2018-11-26T13:18:21.815Z,30.47
2018-11-26T13:20:52.306Z,27.67
2018-11-26T13:23:23.362Z,40.57
2018-11-26T13:25:54.091Z,39.57
2018-11-26T13:28:24.964Z,38.40
2018-11-26T13:30:55.514Z,38.97
2018-11-26T13:33:27.578Z,38.63
2018-11-26T13:35:58.111Z,43.50
2018-11-26T13:38:28.666Z,41.30
2018-11-26T13:41:00.485Z,42.30
2018-11-26T13:43:33.169Z,48.83
2018-11-26T13:46:04.221Z,51.30
2018-11-26T13:48:34.909Z,41.60
2018-11-26T13:51:06.190Z,74.13
2018-11-26T13:53:37.168Z,83.17
2018-11-26T13:56:08.162Z,69.77
2018-11-26T13:58:39.019Z,43.10
2018-11-26T14:01:09.921Z,61.90
2018-11-26T14:03:40.545Z,79.20
2018-11-26T14:06:11.260Z,92.73
2018-11-26T14:08:42.036Z,64.87
2018-11-26T14:11:12.755Z,77.33
2018-11-26T14:13:43.557Z,86.23
2018-11-26T14:16:14.110Z,76.43
2018-11-26T14:18:44.722Z,72.60
2018-11-26T14:21:15.299Z,65.33
2018-11-26T14:23:46.136Z,76.77
2018-11-26T14:26:16.959Z,96.73
2018-11-26T14:28:47.669Z,76.23
2018-11-26T14:31:19.084Z,87.17
2018-11-26T14:33:49.513Z,77.93
2018-11-26T14:36:20.345Z,91.77
2018-11-26T14:38:51.450Z,118.03
2018-11-26T14:41:22.275Z,84.27
2018-11-26T14:43:53.066Z,76.53
2018-11-26T14:46:23.863Z,65.90
2018-11-26T14:48:54.332Z,75.07
2018-11-26T14:51:25.302Z,54.40
2018-11-26T14:53:56.025Z,56.33
2018-11-26T14:56:26.775Z,64.17
2018-11-26T14:58:57.672Z,48.20
2018-11-26T15:01:28.726Z,44.43
2018-11-26T15:03:59.322Z,42.93
2018-11-26T15:06:29.824Z,40.67
2018-11-26T15:09:00.762Z,47.57
2018-11-26T15:11:31.312Z,36.40
2018-11-26T15:14:02.870Z,32.47
2018-11-26T15:16:33.921Z,29.07
2018-11-26T15:19:05.567Z,38.10
2018-11-26T15:21:36.976Z,25.70
2018-11-26T15:24:07.840Z,31.37
2018-11-26T15:26:38.779Z,37.93
2018-11-26T15:29:09.896Z,37.03
2018-11-26T15:31:41.034Z,26.07
2018-11-26T15:34:18.635Z,26.87
2018-11-26T15:36:49.931Z,24.53
2018-11-26T15:39:20.673Z,25.83
2018-11-26T15:41:51.202Z,21.90
2018-11-26T15:44:22.090Z,27.23
2018-11-26T15:46:52.926Z,22.90
2018-11-26T15:49:24.413Z,22.77
2018-11-26T15:51:56.298Z,20.23
2018-11-26T15:54:27.402Z,19.87
2018-11-26T15:56:58.165Z,23.37
2018-11-26T15:59:29.172Z,22.70
2018-11-26T16:02:00.351Z,22.43
2018-11-26T16:04:31.154Z,20.83
2018-11-26T16:07:02.648Z,28.17
2018-11-26T16:09:34.350Z,22.50
2018-11-26T16:12:05.560Z,21.40
2018-11-26T16:14:37.067Z,17.57
2018-11-26T16:17:08.037Z,22.63
2018-11-26T16:19:38.711Z,24.67
2018-11-26T16:22:09.146Z,40.53
2018-11-26T16:24:39.813Z,27.57
2018-11-26T16:27:10.331Z,21.03
2018-11-26T16:29:41.007Z,20.40
2018-11-26T16:32:12.070Z,25.20
2018-11-26T16:34:45.299Z,24.07
2018-11-26T16:37:16.193Z,16.83
2018-11-26T16:39:53.894Z,18.37
2018-11-26T16:42:24.806Z,16.83
2018-11-26T16:44:55.599Z,29.90
2018-11-26T16:47:26.637Z,12.47
2018-11-26T16:49:57.471Z,21.27
2018-11-26T16:52:28.105Z,18.87
2018-11-26T16:54:58.775Z,11.37
2018-11-26T16:57:29.495Z,10.90
2018-11-26T17:00:00.574Z,11.03
2018-11-26T17:02:31.256Z,18.73
2018-11-26T17:05:02.420Z,22.13
2018-11-26T17:07:32.823Z,20.97
2018-11-26T17:10:03.369Z,17.67
2018-11-26T17:12:34.163Z,18.00
2018-11-26T17:15:05.938Z,15.53
2018-11-26T17:17:36.690Z,22.63
2018-11-26T17:20:08.799Z,21.50
2018-11-26T17:22:39.777Z,14.00
2018-11-26T17:25:12.528Z,20.13
2018-11-26T17:27:43.868Z,21.20
2018-11-26T17:30:23.414Z,20.67
2018-11-26T17:32:56.740Z,21.37
2018-11-26T17:35:27.382Z,23.17
2018-11-26T17:37:58.086Z,22.10
2018-11-26T17:40:28.996Z,15.57
2018-11-26T17:43:00.166Z,16.93
2018-11-26T17:45:30.923Z,15.93
2018-11-26T17:48:02.082Z,11.73
2018-11-26T17:50:34.506Z,11.90
2018-11-26T17:53:07.885Z,13.40
2018-11-26T17:55:46.137Z,14.90
2018-11-26T17:58:21.495Z,11.53
2018-11-26T18:03:21.806Z,18.10
2018-11-26T18:05:53.996Z,14.20
2018-11-26T18:08:24.814Z,7.73
2018-11-26T18:10:55.473Z,11.43
2018-11-26T18:13:26.029Z,12.37
2018-11-26T18:15:56.747Z,11.60
2018-11-26T18:18:27.999Z,10.90
2018-11-26T18:20:58.651Z,10.50
2018-11-26T18:23:32.115Z,7.90
2018-11-26T18:26:03.584Z,8.07
2018-11-26T18:28:34.335Z,7.60
2018-11-26T18:31:04.824Z,6.50
2018-11-26T18:33:35.438Z,6.80
2018-11-26T18:36:06.610Z,6.27
2018-11-26T18:38:39.385Z,8.10
2018-11-26T18:41:10.403Z,6.47
2018-11-26T18:43:41.465Z,10.60
2018-11-26T18:46:13.634Z,8.13
2018-11-26T18:48:44.633Z,6.83
2018-11-26T18:51:15.932Z,6.17
2018-11-26T18:53:47.186Z,10.07
2018-11-26T18:56:18.874Z,10.40
2018-11-26T18:58:50.515Z,13.10
2018-11-26T19:01:21.350Z,9.57
2018-11-26T19:03:52.005Z,11.27
2018-11-26T19:06:22.855Z,8.37
2018-11-26T19:08:53.805Z,7.70
2018-11-26T19:11:25.007Z,7.03
2018-11-26T19:14:01.272Z,7.23
2018-11-26T19:16:36.579Z,6.67
2018-11-26T19:21:36.949Z,8.60
2018-11-26T19:24:13.853Z,9.93
2018-11-26T19:26:44.672Z,8.83
2018-11-26T19:32:15.237Z,6.00
2018-11-26T19:34:45.908Z,8.47
2018-11-26T19:37:16.402Z,4.47
2018-11-26T19:39:47.836Z,6.53
2018-11-26T19:42:18.485Z,6.80
2018-11-26T19:44:49.200Z,4.60
2018-11-26T19:47:20.298Z,9.70
2018-11-26T19:49:50.795Z,10.57
2018-11-26T19:52:21.603Z,8.80
2018-11-26T19:54:52.500Z,6.50
2018-11-26T19:57:29.730Z,5.03
2018-11-26T20:00:00.348Z,8.27
2018-11-26T20:02:31.308Z,5.43
2018-11-26T20:05:03.742Z,4.30
2018-11-26T20:07:34.492Z,9.53
2018-11-26T20:10:05.416Z,7.63
2018-11-26T20:12:37.331Z,9.33
2018-11-26T20:15:11.954Z,9.50
2018-11-26T20:17:42.740Z,8.60
2018-11-26T20:20:13.853Z,6.17
2018-11-26T20:22:44.560Z,11.27
2018-11-26T20:25:16.160Z,6.70
2018-11-26T20:27:46.628Z,7.90
2018-11-26T20:30:17.740Z,7.17
2018-11-26T20:32:48.872Z,5.30
2018-11-26T20:35:19.837Z,5.80
2018-11-26T20:37:50.613Z,6.30
2018-11-26T20:40:21.395Z,4.73
2018-11-26T20:42:56.690Z,5.27
2018-11-26T20:45:27.477Z,7.63
2018-11-26T20:48:02.023Z,6.33
2018-11-26T20:50:32.846Z,5.40
2018-11-26T20:53:03.609Z,6.10
2018-11-26T20:55:34.567Z,10.70
2018-11-26T20:58:05.329Z,10.60
2018-11-26T21:00:36.183Z,8.20
2018-11-26T21:03:09.246Z,7.40
2018-11-26T21:05:40.812Z,4.40
2018-11-26T21:08:11.865Z,3.10
2018-11-26T21:10:42.958Z,3.20
2018-11-26T21:13:16.881Z,3.80
2018-11-26T21:15:50.861Z,3.03
2018-11-26T21:18:21.395Z,4.13
2018-11-26T21:20:52.491Z,3.23
2018-11-26T21:23:26.973Z,3.17
2018-11-26T21:25:58.797Z,4.77
2018-11-26T21:28:29.390Z,3.10
2018-11-26T21:31:00.090Z,4.73
2018-11-26T21:33:30.879Z,2.80
2018-11-26T21:36:01.514Z,2.73
2018-11-26T21:38:32.562Z,2.80
2018-11-26T21:41:03.697Z,3.10
2018-11-26T21:43:34.660Z,2.23
2018-11-26T21:46:05.277Z,3.23
2018-11-26T21:48:35.918Z,4.27
2018-11-26T21:51:07.062Z,3.03
2018-11-26T21:53:37.789Z,2.20
2018-11-26T21:56:08.621Z,3.87
2018-11-26T21:58:39.413Z,2.50
2018-11-26T22:01:10.816Z,2.60
2018-11-26T22:03:41.438Z,2.37
2018-11-26T22:06:12.408Z,3.40
2018-11-26T22:08:54.194Z,5.33
2018-11-26T22:11:30.231Z,3.03
2018-11-26T22:13:55.657Z,2.90
2018-11-26T22:16:26.211Z,2.80
2018-11-26T22:18:57.029Z,2.90
2018-11-26T22:21:27.783Z,3.67
2018-11-26T22:23:58.796Z,2.40
2018-11-26T22:26:29.721Z,2.13
2018-11-26T22:29:00.485Z,2.20
2018-11-26T22:31:31.128Z,2.80
2018-11-26T22:34:02.109Z,5.43
2018-11-26T22:36:32.918Z,2.20
2018-11-26T22:39:03.593Z,3.53
2018-11-26T22:41:34.307Z,3.20
2018-11-26T22:44:05.038Z,2.60
2018-11-26T22:46:35.922Z,4.20
2018-11-26T22:49:06.724Z,4.40
2018-11-26T22:51:37.332Z,3.40
2018-11-26T22:54:08.062Z,3.43
2018-11-26T22:56:38.723Z,3.70
2018-11-26T22:59:09.869Z,4.27
2018-11-26T23:01:40.738Z,2.83
2018-11-26T23:04:11.240Z,4.47
2018-11-26T23:06:41.816Z,5.33
2018-11-26T23:09:12.383Z,2.77
2018-11-26T23:11:43.192Z,4.30
2018-11-26T23:14:13.927Z,3.23
2018-11-26T23:16:44.750Z,3.20
2018-11-26T23:19:15.447Z,2.57
2018-11-26T23:21:46.277Z,2.83
2018-11-26T23:24:16.745Z,2.87
2018-11-26T23:26:47.539Z,2.93
2018-11-26T23:29:18.117Z,3.03
2018-11-26T23:31:48.782Z,3.27
2018-11-26T23:34:19.559Z,2.73
2018-11-26T23:36:50.226Z,3.63
2018-11-26T23:39:21.031Z,2.73
2018-11-26T23:41:51.562Z,4.73
2018-11-26T23:44:22.307Z,3.17
2018-11-26T23:46:52.881Z,2.30
2018-11-26T23:49:23.332Z,3.53
2018-11-26T23:51:53.901Z,3.50
2018-11-26T23:54:24.279Z,2.60
2018-11-26T23:56:54.735Z,2.20
2018-11-26T23:59:25.472Z,4.97
